createdAt,value
2023-01-20T00:01:52.797Z,100315.69
2023-01-20T00:04:19.459Z,100312.41
2023-01-20T00:06:46.063Z,100317.78
2023-01-20T00:09:14.456Z,100317.13
2023-01-20T00:11:40.723Z,100324.34
2023-01-20T00:14:10.942Z,100328.84
2023-01-20T00:16:37.275Z,100324.00
2023-01-20T00:19:03.638Z,100325.13
2023-01-20T00:21:29.993Z,100330.56
2023-01-20T00:23:56.609Z,100323.59
2023-01-20T00:26:24.000Z,100325.41
2023-01-20T00:28:53.035Z,100326.31
2023-01-20T00:31:25.769Z,100331.84
2023-01-20T00:33:53.054Z,100338.72
2023-01-20T00:36:19.989Z,100336.38
2023-01-20T00:38:46.604Z,100343.63
2023-01-20T00:41:13.274Z,100344.47
2023-01-20T00:43:39.571Z,100347.66
2023-01-20T00:46:06.339Z,100343.84
2023-01-20T00:48:33.189Z,100348.53
2023-01-20T00:51:00.018Z,100349.00
2023-01-20T00:53:26.542Z,100351.97
2023-01-20T00:55:52.809Z,100357.41
2023-01-20T00:58:19.112Z,100365.09
2023-01-20T01:00:49.638Z,100364.09
2023-01-20T01:03:16.285Z,100369.88
2023-01-20T01:05:42.789Z,100377.13
2023-01-20T01:08:09.319Z,100375.06
2023-01-20T01:10:35.808Z,100384.88
2023-01-20T01:13:03.327Z,100378.25
2023-01-20T01:15:29.679Z,100382.56
2023-01-20T01:17:56.733Z,100381.00
2023-01-20T01:20:23.147Z,100379.38
2023-01-20T01:22:49.437Z,100376.19
2023-01-20T01:25:15.850Z,100382.16
2023-01-20T01:27:42.167Z,100386.31
2023-01-20T01:30:08.797Z,100392.16
2023-01-20T01:32:35.085Z,100386.88
2023-01-20T01:35:01.448Z,100381.66
2023-01-20T01:37:28.512Z,100391.13
2023-01-20T01:39:54.784Z,100389.16
2023-01-20T01:42:24.058Z,100386.75
2023-01-20T01:45:09.186Z,100393.03
2023-01-20T01:47:36.433Z,100396.94
2023-01-20T01:50:03.225Z,100402.97
2023-01-20T01:52:29.725Z,100395.06
2023-01-20T01:54:56.212Z,100403.47
2023-01-20T01:57:22.497Z,100397.88
2023-01-20T01:59:48.969Z,100399.63
2023-01-20T02:02:15.295Z,100403.59
2023-01-20T02:04:43.458Z,100408.34
2023-01-20T02:07:12.247Z,100403.19
2023-01-20T02:09:38.591Z,100409.88
2023-01-20T02:12:08.260Z,100412.41
2023-01-20T02:14:35.932Z,100423.00
2023-01-20T02:17:12.003Z,100418.13
2023-01-20T02:19:57.402Z,100425.88
2023-01-20T02:22:35.879Z,100435.56
2023-01-20T02:25:02.152Z,100438.97
2023-01-20T02:27:47.469Z,100431.53
2023-01-20T02:30:25.160Z,100433.91
2023-01-20T02:32:54.311Z,100432.94
2023-01-20T02:35:24.367Z,100436.69
2023-01-20T02:38:17.083Z,100435.09
2023-01-20T02:40:49.480Z,100441.44
2023-01-20T02:43:34.740Z,100443.25
2023-01-20T02:46:01.082Z,100452.03
2023-01-20T02:48:36.437Z,100457.53
2023-01-20T02:51:07.529Z,100453.91
2023-01-20T02:53:41.368Z,100456.34
2023-01-20T02:56:08.718Z,100467.13
2023-01-20T02:58:39.275Z,100468.34
2023-01-20T03:01:08.778Z,100460.94
2023-01-20T03:03:37.884Z,100474.34
2023-01-20T03:06:07.665Z,100470.34
2023-01-20T03:08:34.967Z,100481.34
2023-01-20T03:11:05.878Z,100480.38
2023-01-20T03:13:37.878Z,100491.19
2023-01-20T03:16:12.339Z,100490.09
2023-01-20T03:18:39.324Z,100486.34
2023-01-20T03:21:07.440Z,100491.97
2023-01-20T03:23:35.143Z,100499.78
2023-01-20T03:26:04.631Z,100501.28
2023-01-20T03:28:31.056Z,100505.81
2023-01-20T03:30:58.192Z,100509.81
2023-01-20T03:33:24.825Z,100515.00
2023-01-20T03:35:51.832Z,100518.31
2023-01-20T03:38:18.133Z,100524.41
2023-01-20T03:40:48.617Z,100531.09
2023-01-20T03:43:26.643Z,100534.09
2023-01-20T03:45:57.250Z,100542.03
2023-01-20T03:48:41.909Z,100539.44
2023-01-20T03:51:12.603Z,100538.84
2023-01-20T03:53:48.479Z,100540.63
2023-01-20T03:56:18.627Z,100544.38
2023-01-20T03:58:46.784Z,100543.81
2023-01-20T04:01:17.814Z,100544.72
2023-01-20T04:03:47.131Z,100547.47
2023-01-20T04:06:14.783Z,100557.03
2023-01-20T04:08:44.737Z,100557.03
2023-01-20T04:11:11.173Z,100564.19
2023-01-20T04:13:37.434Z,100558.28
2023-01-20T04:16:08.960Z,100558.78
2023-01-20T04:18:40.131Z,100573.28
2023-01-20T04:21:06.643Z,100560.31
2023-01-20T04:23:35.705Z,100570.94
2023-01-20T04:26:02.076Z,100571.66
2023-01-20T04:28:28.450Z,100574.88
2023-01-20T04:30:54.861Z,100578.59
2023-01-20T04:33:21.255Z,100573.50
2023-01-20T04:35:47.557Z,100574.78
2023-01-20T04:38:13.825Z,100576.72
2023-01-20T04:40:40.146Z,100585.69
2023-01-20T04:43:06.719Z,100597.31
2023-01-20T04:45:33.040Z,100601.69
2023-01-20T04:47:59.352Z,100596.53
2023-01-20T04:50:25.619Z,100605.72
2023-01-20T04:52:54.335Z,100608.00
2023-01-20T04:55:20.683Z,100617.91
2023-01-20T04:57:47.468Z,100608.31
2023-01-20T05:00:19.778Z,100614.34
2023-01-20T05:02:46.715Z,100617.94
2023-01-20T05:05:13.428Z,100616.72
2023-01-20T05:07:39.831Z,100616.13
2023-01-20T05:10:06.467Z,100611.09
2023-01-20T05:12:32.794Z,100608.31
2023-01-20T05:14:59.055Z,100613.88
2023-01-20T05:17:25.376Z,100615.59
2023-01-20T05:19:51.672Z,100610.84
2023-01-20T05:22:17.941Z,100615.59
2023-01-20T05:24:44.266Z,100622.34
2023-01-20T05:27:10.547Z,100623.78
2023-01-20T05:29:36.840Z,100620.63
2023-01-20T05:32:03.161Z,100621.19
2023-01-20T05:34:29.477Z,100627.69
2023-01-20T05:36:55.792Z,100633.09
2023-01-20T05:39:22.164Z,100633.69
2023-01-20T05:41:48.529Z,100643.38
2023-01-20T05:44:15.124Z,100649.06
2023-01-20T05:46:41.494Z,100645.25
2023-01-20T05:49:07.795Z,100649.06
2023-01-20T05:51:34.233Z,100651.25
2023-01-20T05:54:00.572Z,100658.13
2023-01-20T05:56:26.873Z,100655.69
2023-01-20T05:58:56.331Z,100662.44
2023-01-20T06:01:22.716Z,100661.31
2023-01-20T06:03:49.052Z,100661.06
2023-01-20T06:06:17.676Z,100659.91
2023-01-20T06:08:44.878Z,100665.94
2023-01-20T06:11:11.949Z,100672.19
2023-01-20T06:13:39.565Z,100676.47
2023-01-20T06:16:07.425Z,100685.34
2023-01-20T06:18:34.220Z,100695.38
2023-01-20T06:21:00.600Z,100693.56
2023-01-20T06:23:27.288Z,100699.28
2023-01-20T06:26:00.171Z,100700.97
2023-01-20T06:28:26.483Z,100703.28
2023-01-20T06:30:58.908Z,100711.53
2023-01-20T06:33:25.192Z,100712.72
2023-01-20T06:35:53.523Z,100716.78
2023-01-20T06:38:19.867Z,100723.72
2023-01-20T06:40:46.134Z,100734.03
2023-01-20T06:43:12.416Z,100735.03
2023-01-20T06:45:38.700Z,100737.47
2023-01-20T06:48:05.073Z,100748.03
2023-01-20T06:50:31.481Z,100741.91
2023-01-20T06:52:57.761Z,100742.63
2023-01-20T06:55:24.102Z,100754.84
2023-01-20T06:57:50.394Z,100762.59
2023-01-20T07:00:16.827Z,100763.09
2023-01-20T07:02:43.149Z,100769.00
2023-01-20T07:05:10.116Z,100773.84
2023-01-20T07:07:36.447Z,100772.97
2023-01-20T07:10:03.317Z,100776.19
2023-01-20T07:12:29.635Z,100786.84
2023-01-20T07:14:55.941Z,100782.44
2023-01-20T07:17:22.218Z,100786.47
2023-01-20T07:19:48.534Z,100793.19
2023-01-20T07:22:14.807Z,100798.50
2023-01-20T07:24:41.088Z,100798.66
2023-01-20T07:27:07.375Z,100808.81
2023-01-20T07:29:33.767Z,100811.44
2023-01-20T07:32:00.113Z,100813.56
2023-01-20T07:34:26.574Z,100824.94
2023-01-20T07:36:55.606Z,100825.66
2023-01-20T07:39:21.880Z,100833.50
2023-01-20T07:41:51.110Z,100831.38
2023-01-20T07:44:17.402Z,100840.03
2023-01-20T07:46:43.707Z,100843.53
2023-01-20T07:49:12.210Z,100846.53
2023-01-20T07:51:39.745Z,100851.53
2023-01-20T07:54:06.073Z,100860.41
2023-01-20T07:56:32.515Z,100864.53
2023-01-20T07:58:58.788Z,100864.53
2023-01-20T08:01:26.663Z,100863.56
2023-01-20T08:03:53.347Z,100870.28
2023-01-20T08:06:20.551Z,100869.66
2023-01-20T08:08:47.164Z,100876.88
2023-01-20T08:11:14.296Z,100879.13
2023-01-20T08:13:40.912Z,100879.81
2023-01-20T08:16:08.367Z,100882.56
2023-01-20T08:18:35.378Z,100878.59
2023-01-20T08:21:06.327Z,100886.78
2023-01-20T08:23:33.444Z,100896.59
2023-01-20T08:26:01.975Z,100896.66
2023-01-20T08:28:29.174Z,100900.66
2023-01-20T08:30:56.033Z,100897.88
2023-01-20T08:33:22.389Z,100897.09
2023-01-20T08:35:48.705Z,100905.06
2023-01-20T08:38:15.011Z,100904.47
2023-01-20T08:40:41.968Z,100914.78
2023-01-20T08:43:08.259Z,100910.66
2023-01-20T08:45:34.544Z,100916.31
2023-01-20T08:48:00.871Z,100914.91
2023-01-20T08:50:27.135Z,100924.19
2023-01-20T08:52:53.404Z,100931.66
2023-01-20T08:55:19.765Z,100928.88
2023-01-20T08:57:46.125Z,100929.00
2023-01-20T09:00:13.757Z,100930.72
2023-01-20T09:02:40.907Z,100931.78
2023-01-20T09:05:08.638Z,100931.78
2023-01-20T09:07:34.914Z,100930.50
2023-01-20T09:10:01.239Z,100937.41
2023-01-20T09:12:27.555Z,100939.28
2023-01-20T09:14:56.321Z,100944.78
2023-01-20T09:17:22.623Z,100951.59
2023-01-20T09:19:48.926Z,100953.19
2023-01-20T09:22:16.634Z,100958.41
2023-01-20T09:24:43.025Z,100963.47
2023-01-20T09:27:09.312Z,100958.91
2023-01-20T09:29:36.657Z,100961.25
2023-01-20T09:32:03.152Z,100969.13
2023-01-20T09:34:30.747Z,100971.03
2023-01-20T09:36:58.108Z,100982.66
2023-01-20T09:39:43.173Z,100983.81
2023-01-20T09:42:39.920Z,100982.06
2023-01-20T09:45:24.598Z,100981.69
2023-01-20T09:47:51.341Z,100987.34
2023-01-20T09:50:47.112Z,100982.38
2023-01-20T09:53:34.416Z,100997.50
2023-01-20T09:56:08.790Z,101000.72
2023-01-20T09:58:40.304Z,100999.31
2023-01-20T10:01:12.474Z,101002.03
2023-01-20T10:03:41.848Z,101011.31
2023-01-20T10:06:14.234Z,101013.66
2023-01-20T10:08:59.646Z,101016.91
2023-01-20T10:11:34.773Z,101016.31
2023-01-20T10:14:16.301Z,101026.84
2023-01-20T10:16:50.476Z,101025.44
2023-01-20T10:19:31.907Z,101025.44
2023-01-20T10:22:04.787Z,101032.09
2023-01-20T10:24:33.643Z,101028.38
2023-01-20T10:27:03.842Z,101031.16
2023-01-20T10:29:37.380Z,101033.25
2023-01-20T10:32:23.946Z,101032.16
2023-01-20T10:34:56.309Z,101040.88
2023-01-20T10:37:23.565Z,101036.38
2023-01-20T10:39:53.311Z,101032.16
2023-01-20T10:42:20.072Z,101033.78
2023-01-20T10:44:47.371Z,101038.75
2023-01-20T10:47:36.805Z,101038.78
2023-01-20T10:50:03.079Z,101042.84
2023-01-20T10:52:29.383Z,101045.56
2023-01-20T10:54:58.704Z,101045.97
2023-01-20T10:57:25.154Z,101053.22
2023-01-20T10:59:53.970Z,101063.13
2023-01-20T11:02:29.376Z,101061.03
2023-01-20T11:05:03.078Z,101068.09
2023-01-20T11:07:32.366Z,101068.03
2023-01-20T11:10:00.540Z,101073.34
2023-01-20T11:12:30.089Z,101075.38
2023-01-20T11:14:57.273Z,101076.50
2023-01-20T11:17:23.578Z,101070.97
2023-01-20T11:19:51.587Z,101075.97
2023-01-20T11:22:29.650Z,101079.09
2023-01-20T11:24:58.855Z,101081.84
2023-01-20T11:27:31.502Z,101079.28
2023-01-20T11:30:00.012Z,101073.22
2023-01-20T11:32:31.447Z,101082.91
2023-01-20T11:34:58.250Z,101069.84
2023-01-20T11:37:42.425Z,101081.44
2023-01-20T11:40:23.612Z,101080.56
2023-01-20T11:42:50.838Z,101073.22
2023-01-20T11:45:28.058Z,101086.63
2023-01-20T11:48:06.513Z,101091.38
2023-01-20T11:50:34.905Z,101092.44
2023-01-20T11:53:19.611Z,101097.84
2023-01-20T11:55:54.393Z,101102.69
2023-01-20T11:58:22.334Z,101095.09
2023-01-20T12:00:49.932Z,101095.63
2023-01-20T12:03:34.379Z,101112.22
2023-01-20T12:06:23.415Z,101107.75
2023-01-20T12:08:56.249Z,101115.34
2023-01-20T12:11:26.816Z,101118.00
2023-01-20T12:14:19.174Z,101116.88
2023-01-20T12:16:48.275Z,101114.03
2023-01-20T12:19:18.050Z,101113.28
2023-01-20T12:21:48.749Z,101118.63
2023-01-20T12:24:21.642Z,101123.47
2023-01-20T12:26:48.703Z,101126.28
2023-01-20T12:29:14.970Z,101122.94
2023-01-20T12:31:43.433Z,101128.72
2023-01-20T12:34:14.585Z,101126.97
2023-01-20T12:36:51.617Z,101129.47
2023-01-20T12:39:36.467Z,101134.41
2023-01-20T12:42:14.956Z,101140.41
2023-01-20T12:44:47.077Z,101131.19
2023-01-20T12:47:19.747Z,101134.63
2023-01-20T12:50:06.686Z,101136.16
2023-01-20T12:52:42.002Z,101134.88
2023-01-20T12:55:17.288Z,101144.25
2023-01-20T12:57:43.553Z,101139.53
2023-01-20T13:00:16.356Z,101152.69
2023-01-20T13:02:52.266Z,101150.56
2023-01-20T13:05:18.634Z,101156.41
2023-01-20T13:07:49.923Z,101161.41
2023-01-20T13:10:26.132Z,101163.28
2023-01-20T13:12:52.387Z,101171.06
2023-01-20T13:15:22.772Z,101174.66
2023-01-20T13:18:06.816Z,101178.78
2023-01-20T13:20:34.745Z,101177.13
2023-01-20T13:23:04.167Z,101179.47
2023-01-20T13:25:31.014Z,101186.56
2023-01-20T13:27:57.468Z,101199.81
2023-01-20T13:30:47.857Z,101204.66
2023-01-20T13:33:15.749Z,101214.50
2023-01-20T13:35:44.767Z,101219.16
2023-01-20T13:38:18.773Z,101222.19
2023-01-20T13:40:45.585Z,101224.06
2023-01-20T13:43:11.863Z,101224.06
2023-01-20T13:45:39.140Z,101230.75
2023-01-20T13:48:08.377Z,101229.88
2023-01-20T13:50:37.454Z,101234.75
2023-01-20T13:53:09.929Z,101238.25
2023-01-20T13:55:45.485Z,101242.34
2023-01-20T13:58:14.924Z,101248.69
2023-01-20T14:00:41.550Z,101253.56
2023-01-20T14:03:14.185Z,101247.00
2023-01-20T14:05:40.727Z,101257.63
2023-01-20T14:08:13.149Z,101255.00
2023-01-20T14:10:39.706Z,101263.47
2023-01-20T14:13:17.957Z,101262.16
2023-01-20T14:15:48.211Z,101267.97
2023-01-20T14:18:16.639Z,101263.31
2023-01-20T14:20:43.490Z,101267.53
2023-01-20T14:23:27.259Z,101264.91
2023-01-20T14:25:57.485Z,101277.28
2023-01-20T14:28:23.766Z,101277.72
2023-01-20T14:30:50.965Z,101277.50
2023-01-20T14:33:17.524Z,101282.03
2023-01-20T14:35:44.689Z,101293.06
2023-01-20T14:38:17.821Z,101295.81
2023-01-20T14:40:44.214Z,101289.09
2023-01-20T14:43:18.175Z,101291.88
2023-01-20T14:45:46.389Z,101291.88
2023-01-20T14:48:24.752Z,101299.03
2023-01-20T14:51:02.446Z,101298.34
2023-01-20T14:53:28.711Z,101301.88
2023-01-20T14:55:58.478Z,101304.84
2023-01-20T14:58:24.974Z,101307.25
2023-01-20T15:00:51.616Z,101306.75
2023-01-20T15:03:23.862Z,101319.22
2023-01-20T15:05:58.201Z,101314.16
2023-01-20T15:08:26.242Z,101316.47
2023-01-20T15:11:11.684Z,101319.16
2023-01-20T15:13:39.231Z,101326.75
2023-01-20T15:16:16.981Z,101330.00
2023-01-20T15:18:43.337Z,101329.00
2023-01-20T15:21:20.557Z,101335.03
2023-01-20T15:23:52.360Z,101339.63
2023-01-20T15:26:24.315Z,101347.69
2023-01-20T15:28:50.640Z,101348.97
2023-01-20T15:31:17.156Z,101351.75
2023-01-20T15:33:43.911Z,101353.94
2023-01-20T15:36:18.959Z,101354.38
2023-01-20T15:38:45.420Z,101360.00
2023-01-20T15:41:12.732Z,101363.88
2023-01-20T15:43:39.655Z,101358.47
2023-01-20T15:46:10.695Z,101370.22
2023-01-20T15:48:37.027Z,101375.59
2023-01-20T15:51:03.607Z,101381.66
2023-01-20T15:53:30.213Z,101388.09
2023-01-20T15:55:56.617Z,101384.63
2023-01-20T15:58:25.741Z,101392.53
2023-01-20T16:00:52.271Z,101400.59
2023-01-20T16:03:19.179Z,101402.56
2023-01-20T16:05:47.443Z,101401.53
2023-01-20T16:08:14.834Z,101418.03
2023-01-20T16:10:41.188Z,101415.91
2023-01-20T16:13:08.530Z,101424.44
2023-01-20T16:15:35.248Z,101429.84
2023-01-20T16:18:01.695Z,101439.28
2023-01-20T16:20:28.185Z,101446.34
2023-01-20T16:22:54.610Z,101445.50
2023-01-20T16:25:20.959Z,101457.94
2023-01-20T16:27:47.379Z,101457.97
2023-01-20T16:30:18.385Z,101469.84
2023-01-20T16:32:46.348Z,101475.56
2023-01-20T16:35:16.557Z,101475.34
2023-01-20T16:37:44.355Z,101471.09
2023-01-20T16:40:15.258Z,101471.81
2023-01-20T16:42:41.856Z,101479.94
2023-01-20T16:45:23.135Z,101481.88
2023-01-20T16:47:49.619Z,101494.03
2023-01-20T16:50:16.329Z,101488.16
2023-01-20T16:52:42.726Z,101483.03
2023-01-20T16:55:09.835Z,101494.56
2023-01-20T16:57:37.481Z,101502.38
2023-01-20T17:00:07.327Z,101507.78
2023-01-20T17:02:38.922Z,101514.81
2023-01-20T17:05:06.895Z,101511.41
2023-01-20T17:07:33.197Z,101517.03
2023-01-20T17:09:59.579Z,101530.00
2023-01-20T17:12:25.899Z,101529.78
2023-01-20T17:14:52.208Z,101526.50
2023-01-20T17:17:18.514Z,101532.72
2023-01-20T17:19:44.811Z,101537.59
2023-01-20T17:22:11.170Z,101537.03
2023-01-20T17:24:39.200Z,101544.34
2023-01-20T17:27:05.595Z,101550.53
2023-01-20T17:29:31.983Z,101558.16
2023-01-20T17:31:58.327Z,101558.94
2023-01-20T17:34:24.695Z,101556.75
2023-01-20T17:36:51.024Z,101561.63
2023-01-20T17:39:17.304Z,101557.63
2023-01-20T17:41:43.581Z,101557.63
2023-01-20T17:44:09.892Z,101568.44
2023-01-20T17:46:36.216Z,101570.38
2023-01-20T17:49:04.697Z,101577.13
2023-01-20T17:51:31.118Z,101577.41
2023-01-20T17:53:58.094Z,101577.91
2023-01-20T17:56:24.701Z,101585.78
2023-01-20T17:58:51.199Z,101589.28
2023-01-20T18:01:19.169Z,101591.97
2023-01-20T18:03:45.886Z,101598.75
2023-01-20T18:06:13.446Z,101597.66
2023-01-20T18:08:40.083Z,101604.66
2023-01-20T18:11:10.868Z,101609.81
2023-01-20T18:13:37.761Z,101614.69
2023-01-20T18:16:05.131Z,101612.78
2023-01-20T18:18:31.635Z,101613.03
2023-01-20T18:21:06.665Z,101618.72
2023-01-20T18:23:32.981Z,101617.91
2023-01-20T18:25:59.353Z,101621.94
2023-01-20T18:28:25.836Z,101624.69
2023-01-20T18:30:52.459Z,101631.97
2023-01-20T18:33:18.817Z,101629.81
2023-01-20T18:35:45.099Z,101640.09
2023-01-20T18:38:11.385Z,101640.59
2023-01-20T18:40:37.739Z,101641.41
2023-01-20T18:43:04.039Z,101650.84
2023-01-20T18:45:30.334Z,101650.59
2023-01-20T18:47:56.694Z,101649.50
2023-01-20T18:50:22.965Z,101648.44
2023-01-20T18:52:49.287Z,101653.56
2023-01-20T18:55:15.592Z,101649.22
2023-01-20T18:57:41.888Z,101649.53
2023-01-20T19:00:08.512Z,101652.22
2023-01-20T19:02:34.995Z,101657.34
2023-01-20T19:05:01.361Z,101661.97
2023-01-20T19:07:27.659Z,101652.25
2023-01-20T19:09:53.952Z,101661.72
2023-01-20T19:12:20.254Z,101656.56
2023-01-20T19:14:46.623Z,101657.63
2023-01-20T19:17:12.923Z,101657.63
2023-01-20T19:19:39.289Z,101658.72
2023-01-20T19:22:05.624Z,101658.97
2023-01-20T19:24:32.156Z,101665.19
2023-01-20T19:27:00.245Z,101671.41
2023-01-20T19:29:29.232Z,101680.59
2023-01-20T19:31:55.895Z,101677.88
2023-01-20T19:34:22.251Z,101687.34
2023-01-20T19:36:48.546Z,101684.91
2023-01-20T19:39:15.446Z,101688.94
2023-01-20T19:41:43.107Z,101689.19
2023-01-20T19:44:10.693Z,101691.91
2023-01-20T19:46:41.113Z,101682.47
2023-01-20T19:49:07.542Z,101696.25
2023-01-20T19:51:33.938Z,101702.19
2023-01-20T19:54:01.110Z,101716.00
2023-01-20T19:56:30.176Z,101709.25
2023-01-20T19:58:56.523Z,101715.50
2023-01-20T20:01:41.132Z,101717.34
2023-01-20T20:04:09.891Z,101720.06
2023-01-20T20:06:37.861Z,101727.13
2023-01-20T20:09:09.542Z,101727.56
2023-01-20T20:11:35.994Z,101726.75
2023-01-20T20:14:03.444Z,101733.00
2023-01-20T20:16:31.043Z,101738.63
2023-01-20T20:18:57.714Z,101738.97
2023-01-20T20:21:24.285Z,101748.13
2023-01-20T20:23:51.498Z,101749.75
2023-01-20T20:26:18.268Z,101745.16
2023-01-20T20:28:44.712Z,101747.03
2023-01-20T20:31:11.083Z,101758.97
2023-01-20T20:33:37.785Z,101761.41
2023-01-20T20:36:08.251Z,101761.13
2023-01-20T20:38:36.571Z,101760.00
2023-01-20T20:41:03.849Z,101769.19
2023-01-20T20:43:30.275Z,101764.59
2023-01-20T20:46:00.310Z,101771.91
2023-01-20T20:48:26.645Z,101771.34
2023-01-20T20:50:53.441Z,101772.13
2023-01-20T20:53:20.627Z,101769.16
2023-01-20T20:55:46.979Z,101781.38
2023-01-20T20:58:13.290Z,101775.44
2023-01-20T21:00:39.837Z,101781.38
2023-01-20T21:03:10.953Z,101786.25
2023-01-20T21:05:37.252Z,101790.63
2023-01-20T21:08:05.937Z,101787.38
2023-01-20T21:10:32.250Z,101793.56
2023-01-20T21:12:58.539Z,101796.84
2023-01-20T21:15:24.981Z,101798.13
2023-01-20T21:17:51.242Z,101801.91
2023-01-20T21:20:17.949Z,101797.81
2023-01-20T21:22:44.482Z,101800.28
2023-01-20T21:25:10.819Z,101803.22
2023-01-20T21:27:38.044Z,101819.19
2023-01-20T21:30:04.610Z,101817.25
2023-01-20T21:32:30.941Z,101818.84
2023-01-20T21:34:58.850Z,101823.19
2023-01-20T21:37:25.150Z,101823.38
2023-01-20T21:39:51.422Z,101826.44
2023-01-20T21:42:17.715Z,101826.16
2023-01-20T21:44:44.241Z,101833.97
2023-01-20T21:47:11.421Z,101827.72
2023-01-20T21:49:56.141Z,101838.34
2023-01-20T21:52:41.547Z,101838.41
2023-01-20T21:55:08.930Z,101840.75
2023-01-20T21:57:35.249Z,101839.81
2023-01-20T22:00:02.229Z,101844.19
2023-01-20T22:02:29.169Z,101849.59
2023-01-20T22:04:55.939Z,101851.53
2023-01-20T22:07:22.798Z,101858.25
2023-01-20T22:09:49.249Z,101855.31
2023-01-20T22:12:15.789Z,101856.44
2023-01-20T22:14:42.213Z,101861.84
2023-01-20T22:17:09.388Z,101869.31
2023-01-20T22:19:35.846Z,101871.69
2023-01-20T22:22:02.437Z,101865.72
2023-01-20T22:24:29.204Z,101866.28
2023-01-20T22:26:55.492Z,101873.84
2023-01-20T22:29:21.795Z,101860.03
2023-01-20T22:31:50.595Z,101865.78
2023-01-20T22:34:17.104Z,101873.66
2023-01-20T22:36:43.412Z,101876.00
2023-01-20T22:39:10.766Z,101875.53
2023-01-20T22:41:37.090Z,101881.19
2023-01-20T22:44:03.419Z,101883.59
2023-01-20T22:46:29.794Z,101885.44
2023-01-20T22:48:57.015Z,101891.31
2023-01-20T22:51:24.849Z,101898.94
2023-01-20T22:53:55.104Z,101889.41
2023-01-20T22:56:23.058Z,101896.41
2023-01-20T22:58:49.581Z,101893.41
2023-01-20T23:01:17.122Z,101902.06
2023-01-20T23:03:43.771Z,101890.41
2023-01-20T23:06:10.370Z,101900.69
2023-01-20T23:08:36.706Z,101906.81
2023-01-20T23:11:07.374Z,101905.22
2023-01-20T23:13:35.120Z,101903.81
2023-01-20T23:16:04.519Z,101906.00
2023-01-20T23:18:31.275Z,101915.44
2023-01-20T23:20:57.756Z,101923.28
2023-01-20T23:23:24.878Z,101926.88
2023-01-20T23:25:51.362Z,101936.13
2023-01-20T23:28:17.656Z,101937.25
2023-01-20T23:30:44.013Z,101933.63
2023-01-20T23:33:10.322Z,101939.78
2023-01-20T23:35:39.647Z,101937.84
2023-01-20T23:38:06.977Z,101941.88
2023-01-20T23:40:33.486Z,101952.91
2023-01-20T23:42:59.833Z,101950.53
2023-01-20T23:45:26.124Z,101950.72
2023-01-20T23:47:52.489Z,101953.41
2023-01-20T23:50:18.838Z,101956.53
2023-01-20T23:52:45.148Z,101959.41
2023-01-20T23:55:11.477Z,101955.16
2023-01-20T23:57:37.821Z,101961.53
